Indianapolis, IN (46239)

14:17 EDT le 01 octobre 2014 (GMT -0400)
Wildcat Park-SE Side | Change Station
CLOSE
Current Station
Stations météorologiques personnelles
Location: Indianapolis, IN
Altitude: 850 ft
Stations météo à proximité

Alt. 850 ft 39.69 °N, 86.03 °W | Updated 8 seconds ago

Nuageux
Nuageux
73.5 ° F
Paraît 77 ° F
N
2.0
Vent Variable Vent de SE
Gusts 9.0 mph

Aujourd'hui
Haut(e) -- | Bas -- ° F
--% Risque de précip.
Hier
Haut(e) -- | Bas -- ° F
Precip. -- pouce
7:40 AM 7:26 PM
Lune montante, 49% visible
Pression 29.95 pouce
Visibilité 10.0 Miles terrestres
Nuages Nuages épars 5500 ft
Nuages épars 25000 ft
indice de chaleur 77 ° F
Point de rosée 54 ° F
Humidité 51%
Précipitations 0.00 pouce
Profondeur de la couche neigeuse Non disponible.
UV 5 sur 12
Pollen 4.10 sur 12
Ozone Bon
Flu Activity Non disponible.
METAR KIND 301754Z 32006KT 10SM SCT055 SCT250 20/12 A2996 RMK AO2 SLP142 T02000122 10200 20139 58007

More Conditions Fewer Conditions

Pression 29.95 pouce
Visibilité 10.0 Miles terrestres
Nuages Nuages épars 5500 ft
Nuages épars 25000 ft
indice de chaleur 77 ° F
Point de rosée 54 ° F
Humidité 51%
Précipitations 0.00 pouce
Profondeur de la couche neigeuse Non disponible.
UV 5 sur 12
Pollen 4.10 sur 12
Ozone Bon
Flu Activity Non disponible.
METAR KIND 301754Z 32006KT 10SM SCT055 SCT250 20/12 A2996 RMK AO2 SLP142 T02000122 10200 20139 58007

More Conditions Fewer Conditions

10-Day Weather Forecast

Almanac

Astronomie

Oct. 01, 2014 Lever Coucher
Temps réel 07:40 EDT 19:26 EDT
Crépuscule civil 07:13 EDT 19:53 EDT
Crépuscule nautique 06:42 EDT 20:24 EDT
Crépuscule astronomique 06:10 EDT 20:55 EDT
Lune 14:39 EDT Pas de coucher de lune
Durée de lumière visible 12h 39m
Longueur du jour
11h 46m
Tomorrow will be 2m 35s shorter.
Lune montante, 49% of the Moon is Illuminated
Aujourd'hui
Lune montante
Oct 1
Premier quartier
Oct 8
Pleine lune
Oct 15
Dernier quartier
Oct 23
Nouveau

Extrêmes aujourd'hui

State Highs State Lows

Community

WunderPhotos

Upload Photos

1,758,008 Photos téléchargées !

WunderBlogs® & News

By Dr. Jeff Masters
Director of Meteorology, Weather Underground
By Kari Strenfel
Meteorologist, Weather Underground
By Christopher C. Burt
Weather Historian, Weather Underground
October 1, 2014
October 1, 2014
October 1, 2014

Nearby

Qualité de l'air

  Qualité de l'air Indice de la qualité de l'air Polluant
Hier Bon
PM10
Hier Bon
OZONE
Actuel Bon
OZONE
mercredi Moyen
PM2.5
mercredi Bon
OZONE
jeudi Moyen
PM2.5
jeudi Bon
OZONE

Épaisseur de neige

Station Depth Altitude
Pas de nouvelles chutes de neige

Activité sismique

Ville Distance Mag. Time & Date
No recent earthquake activity has been reported nearby.
Minimum magnitude displayed is 2.5.

Températures des eaux côtières

Lieu Température
Aucun rapport de station

Stations météo à proximité